Time;durP1;ratioP1;P1;durP2;ratioP2;P2;SDS_P1;SDS_P2;PMS_P1;PMS_P2;Temp;Humidity;BMP_temperature;BMP_pressure;BME280_temperature;BME280_humidity;BME280_pressure;Samples;Min_cycle;Max_cycle;Signal;HPM_P1;HPM_P2
2022/12/01 00:02:05;;;;;;;52.20;20.13;;;;;;;1.74;100.00;103014.06;7375932;19;20014;-76
2022/12/01 00:04:35;;;;;;;50.55;18.92;;;;;;;1.70;100.00;103024.00;7374870;19;20053;-76
2022/12/01 00:07:05;;;;;;;56.08;22.95;;;;;;;1.64;100.00;103019.22;7377821;19;20015;-77
2022/12/01 00:12:18;;;;;;;53.42;21.80;;;;;;;1.51;100.00;103016.38;7375685;19;20026;-76
2022/12/01 00:14:59;;;;;;;48.97;17.48;;;;;;;1.45;100.00;103019.38;7378504;19;20019;-77
2022/12/01 00:17:30;;;;;;;43.35;18.63;;;;;;;1.43;100.00;103020.00;7377327;19;20046;-76
2022/12/01 00:20:00;;;;;;;56.33;22.33;;;;;;;1.42;100.00;103026.88;7378115;19;20010;-76
2022/12/01 00:22:29;;;;;;;50.13;20.48;;;;;;;1.37;100.00;103028.16;7375723;19;20010;-76
2022/12/01 00:24:59;;;;;;;48.42;20.15;;;;;;;1.34;100.00;103021.81;7376927;19;20023;-76
2022/12/01 00:27:30;;;;;;;47.67;20.48;;;;;;;1.35;100.00;103026.22;7373296;19;20028;-76
2022/12/01 00:30:02;;;;;;;50.47;22.00;;;;;;;1.39;100.00;103017.94;7375320;19;20007;-76
2022/12/01 00:32:32;;;;;;;65.97;22.95;;;;;;;1.46;100.00;103023.75;7373606;19;20030;-76
2022/12/01 00:35:02;;;;;;;52.90;20.25;;;;;;;1.47;100.00;103025.56;7376485;19;20372;-76
2022/12/01 00:37:32;;;;;;;53.50;21.52;;;;;;;1.44;100.00;103025.31;7373780;19;20021;-76
2022/12/01 00:40:02;;;;;;;56.08;22.55;;;;;;;1.43;100.00;103022.59;7376039;19;20503;-76
2022/12/01 00:42:32;;;;;;;57.17;21.90;;;;;;;1.37;100.00;103022.06;7375340;19;20022;-76
2022/12/01 00:45:05;;;;;;;57.58;21.08;;;;;;;1.31;100.00;103019.88;7375422;19;20219;-76
2022/12/01 00:47:34;;;;;;;50.67;20.30;;;;;;;1.28;100.00;103025.69;7375608;19;20027;-76
2022/12/01 00:50:04;;;;;;;48.92;20.65;;;;;;;1.24;100.00;103026.19;7376471;19;20405;-76
2022/12/01 00:52:34;;;;;;;56.65;21.05;;;;;;;1.20;100.00;103028.41;7375378;19;20612;-76
2022/12/01 00:55:04;;;;;;;56.90;22.95;;;;;;;1.17;100.00;103022.97;7375582;19;20014;-76
2022/12/01 00:57:34;;;;;;;52.58;19.17;;;;;;;1.14;100.00;103030.44;7378901;19;20090;-76
2022/12/01 01:00:08;;;;;;;48.30;18.83;;;;;;;1.13;100.00;103023.47;7372496;19;20029;-77
2022/12/01 01:02:40;;;;;;;58.85;24.15;;;;;;;1.15;100.00;103021.94;7372007;19;20022;-77
2022/12/01 01:05:10;;;;;;;48.80;20.55;;;;;;;1.12;100.00;103038.06;7374307;19;20109;-75
2022/12/01 01:07:40;;;;;;;56.95;23.90;;;;;;;1.24;100.00;103033.97;7373260;19;20205;-76
2022/12/01 01:10:11;;;;;;;52.67;22.63;;;;;;;1.21;100.00;103035.38;7373643;19;20451;-76
2022/12/01 01:12:41;;;;;;;53.17;22.90;;;;;;;1.24;100.00;103039.13;7371203;19;20729;-78
2022/12/01 01:15:13;;;;;;;69.10;23.00;;;;;;;1.34;100.00;103027.91;7371412;19;20010;-76
2022/12/01 01:17:43;;;;;;;67.47;24.95;;;;;;;1.43;100.00;103039.00;7374474;19;20015;-76
2022/12/01 01:20:13;;;;;;;64.70;25.75;;;;;;;1.55;100.00;103033.97;7370640;19;20011;-75
2022/12/01 01:22:43;;;;;;;55.25;22.15;;;;;;;1.54;100.00;103040.84;7372404;19;20011;-76
2022/12/01 01:25:13;;;;;;;64.95;25.08;;;;;;;1.70;100.00;103037.84;7371302;19;20029;-75
2022/12/01 01:27:42;;;;;;;62.83;24.42;;;;;;;1.76;100.00;103040.06;7371773;19;20416;-75
2022/12/01 01:30:15;;;;;;;74.90;27.60;;;;;;;1.85;100.00;103041.72;7372427;19;20022;-76
2022/12/01 01:32:45;;;;;;;74.65;28.90;;;;;;;1.94;100.00;103046.75;7372382;19;20022;-75
2022/12/01 01:35:15;;;;;;;81.35;28.77;;;;;;;2.05;100.00;103045.06;7371748;19;20029;-77
2022/12/01 01:37:45;;;;;;;71.18;29.15;;;;;;;2.20;100.00;103041.09;7371225;19;20015;-75
2022/12/01 01:40:14;;;;;;;74.60;25.58;;;;;;;2.29;100.00;103052.22;7373210;19;20014;-75
2022/12/01 01:42:44;;;;;;;75.20;28.17;;;;;;;2.35;100.00;103038.88;7373662;19;20018;-76
2022/12/01 01:45:30;;;;;;;68.32;25.80;;;;;;;2.38;100.00;103041.72;7377879;19;20027;-75
2022/12/01 01:48:03;;;;;;;73.57;29.27;;;;;;;2.47;100.00;103042.44;7372661;19;20011;-75
2022/12/01 01:50:33;;;;;;;85.35;29.75;;;;;;;2.50;100.00;103048.78;7374095;19;20025;-75
2022/12/01 01:53:05;;;;;;;81.28;27.38;;;;;;;2.54;100.00;103043.06;7372951;19;20228;-75
2022/12/01 01:55:37;;;;;;;85.70;31.33;;;;;;;2.71;100.00;103052.19;7374149;19;20014;-78
2022/12/01 01:58:10;;;;;;;86.22;28.80;;;;;;;2.79;100.00;103052.81;7373559;19;20014;-78
2022/12/01 02:00:46;;;;;;;97.50;29.95;;;;;;;2.82;100.00;103050.47;7375246;19;20018;-78
2022/12/01 02:03:19;;;;;;;71.63;27.95;;;;;;;2.92;100.00;103046.13;7373916;19;20085;-76
2022/12/01 02:05:49;;;;;;;;;;;;;;;2.98;100.00;103047.41;7372909;19;20026;-76
2022/12/01 02:08:19;;;;;;;81.43;30.33;;;;;;;3.05;100.00;103042.81;7377597;19;19915;-76
2022/12/01 02:11:09;;;;;;;89.93;30.35;;;;;;;3.09;100.00;103038.78;7371837;19;20576;-76
2022/12/01 02:13:50;;;;;;;92.55;29.13;;;;;;;3.08;100.00;103034.38;7372555;19;20022;-76
2022/12/01 02:16:32;;;;;;;90.22;30.45;;;;;;;3.06;100.00;103034.25;7371589;19;20018;-76
2022/12/01 02:19:22;;;;;;;98.38;29.55;;;;;;;3.11;100.00;103032.03;7370482;19;20514;-76
2022/12/01 02:22:04;;;;;;;80.80;29.08;;;;;;;3.15;100.00;103034.03;7371383;19;20518;-76
2022/12/01 02:25:05;;;;;;;84.13;32.58;;;;;;;3.17;100.00;103032.47;7369027;19;20018;-76
2022/12/01 02:27:55;;;;;;;79.05;27.15;;;;;;;3.18;100.00;103029.09;7371331;19;20026;-76
2022/12/01 02:30:38;;;;;;;84.60;31.23;;;;;;;3.17;100.00;103014.31;7368523;19;20010;-76
2022/12/01 02:33:10;;;;;;;;;;;;;;;3.11;100.00;103012.19;7374098;19;20522;-76
2022/12/01 02:35:47;;;;;;;90.13;27.60;;;;;;;3.06;100.00;103017.78;7373083;19;20000;-76
2022/12/01 02:38:26;;;;;;;83.70;28.23;;;;;;;3.01;100.00;103024.31;7366824;19;20011;-76
2022/12/01 02:41:03;;;;;;;89.35;29.38;;;;;;;2.97;100.00;103025.75;7375435;19;20475;-76
2022/12/01 02:43:37;;;;;;;82.68;29.20;;;;;;;2.89;100.00;103026.84;7372060;19;20022;-76
2022/12/01 02:46:14;;;;;;;81.30;30.52;;;;;;;2.87;100.00;103026.72;7371372;19;20464;-76
2022/12/01 02:48:49;;;;;;;72.05;29.20;;;;;;;2.81;100.00;103030.50;7372338;19;20014;-76
2022/12/01 02:51:22;;;;;;;66.90;28.48;;;;;;;2.76;100.00;103029.25;7372076;19;20609;-76
2022/12/01 02:53:53;;;;;;;68.95;25.95;;;;;;;2.72;100.00;103033.28;7370394;19;20019;-76
2022/12/01 02:56:24;;;;;;;70.93;27.52;;;;;;;2.71;100.00;103023.69;7374417;19;20019;-76
2022/12/01 02:58:54;;;;;;;58.75;26.15;;;;;;;2.70;100.00;103031.34;7370117;19;20025;-76
2022/12/01 03:01:50;;;;;;;75.80;27.98;;;;;;;2.68;100.00;103020.88;7368276;19;20345;-76
2022/12/01 03:04:34;;;;;;;70.35;24.90;;;;;;;2.67;100.00;103025.91;7372180;19;20083;-76
2022/12/01 03:07:14;;;;;;;68.30;28.27;;;;;;;2.66;100.00;103025.00;7364376;19;20024;-76
2022/12/01 03:09:57;;;;;;;82.80;29.00;;;;;;;2.64;100.00;103031.75;7368090;19;20078;-76
2022/12/01 03:12:36;;;;;;;66.40;26.50;;;;;;;2.63;100.00;103036.03;7369335;19;20018;-76
2022/12/01 03:15:12;;;;;;;87.65;30.10;;;;;;;2.70;100.00;103023.56;7367590;19;20283;-76
2022/12/01 03:17:50;;;;;;;84.95;29.05;;;;;;;2.70;100.00;103031.34;7367035;19;20019;-76
2022/12/01 03:20:26;;;;;;;74.65;28.35;;;;;;;2.70;100.00;103032.25;7365232;19;20010;-76
2022/12/01 03:23:03;;;;;;;74.15;26.23;;;;;;;2.66;100.00;103027.59;7366783;19;20007;-76
2022/12/01 03:25:33;;;;;;;95.00;30.45;;;;;;;2.59;100.00;103026.22;7367019;19;20022;-75
2022/12/01 03:28:04;;;;;;;85.50;27.73;;;;;;;2.53;100.00;103023.13;7367889;19;20010;-79
2022/12/01 03:30:54;;;;;;;68.00;26.52;;;;;;;2.45;100.00;103020.72;7377033;19;20053;-74
2022/12/01 03:33:31;;;;;;;81.23;27.93;;;;;;;2.42;100.00;103023.03;7374209;19;20021;-76
2022/12/01 03:36:04;;;;;;;66.53;26.50;;;;;;;2.37;100.00;103029.53;7373063;19;20270;-76
2022/12/01 03:38:38;;;;;;;78.28;28.73;;;;;;;2.33;100.00;103023.19;7372854;19;20105;-75
2022/12/01 03:41:14;;;;;;;69.85;26.65;;;;;;;2.25;100.00;103013.91;7375001;19;20022;-75
2022/12/01 03:43:52;;;;;;;64.93;25.02;;;;;;;2.18;100.00;103028.03;7377561;19;20018;-76
2022/12/01 03:46:29;;;;;;;58.92;23.98;;;;;;;2.10;100.00;103023.00;7371985;19;20017;-77
2022/12/01 03:49:02;;;;;;;65.30;24.95;;;;;;;2.05;100.00;103021.75;7375571;19;20059;-77
2022/12/01 03:51:36;;;;;;;58.33;21.85;;;;;;;1.97;100.00;103021.13;7373000;19;20082;-76
2022/12/01 03:54:11;;;;;;;60.70;24.08;;;;;;;1.93;100.00;103019.06;7373416;19;20022;-75
2022/12/01 03:56:48;;;;;;;52.50;23.05;;;;;;;1.86;100.00;103017.66;7374513;19;20071;-75
2022/12/01 03:59:21;;;;;;;72.05;26.25;;;;;;;1.85;100.00;103022.72;7374509;19;20014;-75
2022/12/01 04:01:52;;;;;;;66.72;23.60;;;;;;;1.76;100.00;103021.94;7371890;19;20006;-74
2022/12/01 04:04:24;;;;;;;54.38;23.50;;;;;;;1.72;100.00;103033.72;7374056;19;20009;-75
2022/12/01 04:06:54;;;;;;;58.05;24.38;;;;;;;1.72;100.00;103032.81;7369151;19;20467;-75
2022/12/01 04:09:24;;;;;;;68.13;26.45;;;;;;;1.67;100.00;103029.84;7375509;19;20078;-74
2022/12/01 04:14:36;;;;;;;78.68;27.75;;;;;;;1.54;100.00;103038.25;7374870;19;20018;-77
2022/12/01 04:17:05;;;;;;;79.65;26.67;;;;;;;1.54;100.00;103039.94;7374181;19;20015;-78
2022/12/01 04:19:37;;;;;;;68.38;26.20;;;;;;;1.49;100.00;103036.03;7373346;19;20015;-77
2022/12/01 04:22:07;;;;;;;78.15;25.92;;;;;;;1.47;100.00;103037.59;7374929;19;20018;-77
2022/12/01 04:24:37;;;;;;;62.67;24.50;;;;;;;1.40;100.00;103036.16;7373092;19;20018;-77
2022/12/01 04:27:06;;;;;;;70.90;25.67;;;;;;;1.36;100.00;103034.09;7372563;19;20025;-77
2022/12/01 04:29:36;;;;;;;75.13;25.45;;;;;;;1.34;100.00;103038.22;7375232;19;20014;-77
2022/12/01 04:32:06;;;;;;;59.05;23.42;;;;;;;1.27;100.00;103038.47;7375825;19;20019;-78
2022/12/01 04:34:38;;;;;;;53.05;22.13;;;;;;;1.23;100.00;103036.41;7374714;19;20014;-78
2022/12/01 04:37:10;;;;;;;71.10;26.95;;;;;;;1.21;100.00;103045.72;7374977;19;20015;-78
2022/12/01 04:39:40;;;;;;;67.80;24.70;;;;;;;1.23;100.00;103054.50;7375387;19;20019;-78
2022/12/01 04:42:11;;;;;;;71.55;24.95;;;;;;;1.24;100.00;103048.56;7374430;19;20695;-78
2022/12/01 04:44:41;;;;;;;68.55;25.75;;;;;;;1.23;100.00;103052.81;7378578;19;20015;-78
2022/12/01 04:47:11;;;;;;;81.75;27.33;;;;;;;1.26;100.00;103047.91;7375294;19;20507;-78
2022/12/01 04:49:43;;;;;;;62.67;25.73;;;;;;;1.32;100.00;103039.78;7379926;19;20086;-78
2022/12/01 04:52:12;;;;;;;72.47;26.35;;;;;;;1.33;100.00;103048.44;7373870;19;20010;-78
2022/12/01 04:54:42;;;;;;;74.22;24.02;;;;;;;1.31;100.00;103043.13;7374324;19;20532;-78
2022/12/01 04:57:12;;;;;;;82.55;30.38;;;;;;;1.30;100.00;103041.34;7372766;19;20019;-78
2022/12/01 04:59:41;;;;;;;59.85;24.35;;;;;;;1.29;100.00;103042.09;7374925;19;20783;-78
2022/12/01 05:02:11;;;;;;;79.70;27.23;;;;;;;1.28;100.00;103037.72;7370981;19;20022;-78
2022/12/01 05:04:46;;;;;;;64.45;26.08;;;;;;;1.29;100.00;103039.53;7377427;19;20031;-76
2022/12/01 05:07:17;;;;;;;63.70;26.02;;;;;;;1.29;100.00;103036.94;7369384;19;20010;-75
2022/12/01 05:09:46;;;;;;;76.03;26.83;;;;;;;1.33;100.00;103046.75;7370372;19;20569;-76
2022/12/01 05:12:17;;;;;;;58.25;24.92;;;;;;;1.37;100.00;103048.84;7371456;19;20075;-75
2022/12/01 05:14:47;;;;;;;56.50;23.20;;;;;;;1.39;100.00;103047.28;7372703;19;20014;-75
2022/12/01 05:17:17;;;;;;;69.30;24.23;;;;;;;1.43;100.00;103036.44;7372406;19;20232;-78
2022/12/01 05:22:31;;;;;;;71.28;25.00;;;;;;;1.51;100.00;103047.44;7369045;19;20021;-78
2022/12/01 05:25:21;;;;;;;66.10;24.50;;;;;;;1.54;100.00;103046.00;7372066;19;20021;-77
2022/12/01 05:27:50;;;;;;;55.92;22.38;;;;;;;1.56;100.00;103041.88;7366998;19;20007;-78
2022/12/01 05:30:20;;;;;;;75.35;27.40;;;;;;;1.60;100.00;103043.94;7367923;19;20014;-78
2022/12/01 05:32:56;;;;;;;72.75;28.65;;;;;;;1.65;100.00;103046.91;7369160;19;20108;-78
2022/12/01 05:35:29;;;;;;;75.70;27.30;;;;;;;1.69;100.00;103048.06;7373676;19;20018;-78
2022/12/01 05:37:59;;;;;;;71.03;25.55;;;;;;;1.74;100.00;103047.69;7367921;19;20010;-78
2022/12/01 05:40:36;;;;;;;65.18;24.77;;;;;;;1.73;100.00;103050.13;7376614;19;20029;-78
2022/12/01 05:43:06;;;;;;;80.85;26.70;;;;;;;1.72;100.00;103041.47;7372809;19;20018;-78
2022/12/01 05:45:36;;;;;;;68.38;25.92;;;;;;;1.72;100.00;103036.31;7369452;19;20011;-78
2022/12/01 05:48:06;;;;;;;69.05;25.23;;;;;;;1.75;100.00;103036.56;7370884;19;20015;-78
2022/12/01 05:50:40;;;;;;;64.55;25.77;;;;;;;1.72;100.00;103037.97;7371177;19;20037;-78
2022/12/01 05:53:12;;;;;;;71.80;25.02;;;;;;;1.76;100.00;103042.63;7367999;19;20027;-78
2022/12/01 05:55:43;;;;;;;62.67;23.73;;;;;;;1.71;100.00;103043.94;7371719;19;20018;-78
2022/12/01 05:58:13;;;;;;;69.20;25.90;;;;;;;1.66;100.00;103048.72;7373419;19;20014;-78
2022/12/01 06:00:44;;;;;;;64.85;25.88;;;;;;;1.65;100.00;103059.84;7369631;19;20022;-79
2022/12/01 06:03:14;;;;;;;58.25;22.58;;;;;;;1.59;100.00;103059.31;7369002;19;20022;-79
2022/12/01 06:05:47;;;;;;;63.05;24.52;;;;;;;1.55;100.00;103059.84;7368733;19;20014;-78
2022/12/01 06:08:17;;;;;;;53.13;21.98;;;;;;;1.53;100.00;103057.13;7365942;19;20050;-79
2022/12/01 06:10:46;;;;;;;74.07;25.95;;;;;;;1.50;100.00;103056.88;7371769;19;20022;-79
2022/12/01 06:13:16;;;;;;;66.90;25.88;;;;;;;1.57;100.00;103054.03;7372481;19;20011;-79
2022/12/01 06:15:46;;;;;;;67.55;25.00;;;;;;;1.59;100.00;103061.91;7370584;19;20014;-79
2022/12/01 06:18:15;;;;;;;75.85;27.17;;;;;;;1.68;100.00;103066.97;7369941;19;20113;-79
2022/12/01 06:20:47;;;;;;;81.05;25.17;;;;;;;1.73;100.00;103068.25;7368889;19;20017;-79
2022/12/01 06:23:17;;;;;;;84.47;27.85;;;;;;;1.82;100.00;103066.44;7371044;19;20021;-79
2022/12/01 06:25:47;;;;;;;70.68;26.88;;;;;;;1.92;100.00;103064.75;7370154;19;20028;-79
2022/12/01 06:28:16;;;;;;;67.90;24.17;;;;;;;1.91;100.00;103062.03;7364898;19;20010;-79
2022/12/01 06:30:47;;;;;;;80.00;25.92;;;;;;;1.94;100.00;103072.63;7369940;19;20475;-79
2022/12/01 06:33:16;;;;;;;69.15;24.95;;;;;;;1.90;100.00;103070.56;7369222;19;20025;-78
2022/12/01 06:35:48;;;;;;;78.53;26.67;;;;;;;1.90;100.00;103070.56;7374004;19;20006;-79
2022/12/01 06:38:18;;;;;;;73.10;25.23;;;;;;;1.93;100.00;103081.19;7370944;19;20006;-79
2022/12/01 06:40:48;;;;;;;81.18;25.48;;;;;;;1.94;100.00;103077.81;7373445;19;20471;-79
2022/12/01 06:43:17;;;;;;;82.80;26.92;;;;;;;1.96;100.00;103084.03;7375495;19;20111;-79
2022/12/01 06:45:47;;;;;;;82.97;28.10;;;;;;;2.01;100.00;103080.13;7366754;19;20014;-79
2022/12/01 06:48:16;;;;;;;71.22;25.55;;;;;;;2.04;100.00;103077.81;7366355;19;20015;-79
2022/12/01 06:50:49;;;;;;;73.25;27.88;;;;;;;2.07;100.00;103075.47;7371122;19;20023;-79
2022/12/01 06:53:18;;;;;;;76.45;27.63;;;;;;;2.06;100.00;103077.94;7365710;19;20018;-79
2022/12/01 06:55:48;;;;;;;93.93;29.13;;;;;;;2.06;100.00;103075.34;7368880;19;20025;-77
2022/12/01 06:58:18;;;;;;;82.38;26.20;;;;;;;2.11;100.00;103077.50;7367632;19;20045;-78
2022/12/01 07:00:47;;;;;;;92.10;27.90;;;;;;;2.16;100.00;103076.19;7369317;19;20321;-78
2022/12/01 07:03:20;;;;;;;87.10;28.03;;;;;;;2.20;100.00;103078.25;7369885;19;20048;-78
2022/12/01 07:05:59;;;;;;;75.18;27.83;;;;;;;2.14;100.00;103080.34;7376052;19;20295;-78
2022/12/01 07:08:30;;;;;;;66.65;26.35;;;;;;;2.10;100.00;103085.13;7375328;19;20018;-78
2022/12/01 07:11:01;;;;;;;64.93;23.50;;;;;;;2.06;100.00;103084.00;7374597;19;20526;-76
2022/12/01 07:13:31;;;;;;;74.50;28.10;;;;;;;2.07;100.00;103085.81;7376881;19;20014;-76
2022/12/01 07:16:02;;;;;;;72.75;24.92;;;;;;;2.10;100.00;103075.69;7376339;19;20015;-76
2022/12/01 07:18:33;;;;;;;82.15;29.70;;;;;;;2.10;100.00;103090.31;7374743;19;20022;-76
2022/12/01 07:21:07;;;;;;;82.55;27.52;;;;;;;2.12;100.00;103081.00;7374539;19;20056;-76
2022/12/01 07:23:37;;;;;;;81.50;26.65;;;;;;;2.15;100.00;103086.41;7373192;19;20018;-77
2022/12/01 07:26:09;;;;;;;66.00;26.23;;;;;;;2.15;100.00;103096.78;7375215;19;20011;-76
2022/12/01 07:28:39;;;;;;;77.88;26.45;;;;;;;2.17;100.00;103093.53;7374808;19;20037;-77
2022/12/01 07:31:10;;;;;;;72.53;29.00;;;;;;;2.19;100.00;103102.34;7376567;19;20015;-76
2022/12/01 07:33:41;;;;;;;73.00;28.50;;;;;;;2.22;100.00;103093.91;7369883;19;20011;-76
2022/12/01 07:36:14;;;;;;;77.05;27.30;;;;;;;2.22;100.00;103097.41;7374995;19;20010;-76
2022/12/01 07:38:44;;;;;;;80.28;26.15;;;;;;;2.21;100.00;103105.97;7373499;19;20019;-77
2022/12/01 07:41:17;;;;;;;72.90;27.25;;;;;;;2.21;100.00;103115.41;7377580;19;20102;-76
2022/12/01 07:43:48;;;;;;;67.35;26.95;;;;;;;2.21;100.00;103110.22;7376351;19;20014;-76
2022/12/01 07:46:19;;;;;;;70.90;26.15;;;;;;;2.30;100.00;103117.06;7376980;19;20620;-76
2022/12/01 07:48:54;;;;;;;91.28;29.08;;;;;;;2.42;100.00;103121.47;7373268;19;20101;-76
2022/12/01 07:51:27;;;;;;;71.55;27.45;;;;;;;2.52;100.00;103119.75;7375991;19;20569;-76
2022/12/01 07:53:57;;;;;;;82.90;26.75;;;;;;;2.56;100.00;103126.09;7371510;19;20034;-76
2022/12/01 07:56:27;;;;;;;82.60;29.67;;;;;;;2.65;100.00;103121.66;7380124;19;20027;-76
2022/12/01 07:58:57;;;;;;;94.53;30.42;;;;;;;2.73;100.00;103125.78;7375948;19;20011;-76
2022/12/01 08:01:27;;;;;;;74.10;27.67;;;;;;;2.78;100.00;103127.06;7372140;19;20018;-76
2022/12/01 08:03:59;;;;;;;72.88;27.98;;;;;;;2.85;100.00;103126.78;7370696;19;20025;-76
2022/12/01 08:06:31;;;;;;;88.00;30.70;;;;;;;2.90;100.00;103135.81;7369126;19;20523;-78
2022/12/01 08:09:01;;;;;;;87.13;29.02;;;;;;;3.00;100.00;103129.69;7369532;19;20018;-76
2022/12/01 08:11:31;;;;;;;79.55;26.45;;;;;;;3.10;100.00;103129.66;7371972;19;20029;-77
2022/12/01 08:14:00;;;;;;;96.32;30.17;;;;;;;3.11;100.00;103134.03;7365629;19;20117;-76
2022/12/01 08:16:30;;;;;;;100.20;33.20;;;;;;;3.18;100.00;103125.03;7364894;19;20011;-76
2022/12/01 08:19:00;;;;;;;87.03;28.35;;;;;;;3.21;100.00;103127.88;7366529;19;20718;-76
2022/12/01 08:21:32;;;;;;;92.93;30.58;;;;;;;3.26;100.00;103132.63;7367464;19;20015;-76
2022/12/01 08:24:02;;;;;;;87.45;28.25;;;;;;;3.29;100.00;103126.78;7367855;19;20106;-75
2022/12/01 08:26:32;;;;;;;95.50;29.55;;;;;;;3.35;100.00;103132.47;7369519;19;20007;-75
2022/12/01 08:29:02;;;;;;;89.07;33.65;;;;;;;3.36;100.00;103134.25;7369137;19;20037;-75
2022/12/01 08:31:35;;;;;;;89.75;31.27;;;;;;;3.39;100.00;103134.50;7368479;19;20021;-75
2022/12/01 08:34:06;;;;;;;84.93;30.15;;;;;;;3.40;100.00;103130.22;7369914;19;20015;-75
2022/12/01 08:36:38;;;;;;;93.90;32.55;;;;;;;3.40;100.00;103135.41;7369015;19;20010;-75
2022/12/01 08:39:10;;;;;;;88.40;30.13;;;;;;;3.39;100.00;103144.88;7367325;19;20018;-75
2022/12/01 08:41:39;;;;;;;85.03;29.45;;;;;;;3.42;100.00;103139.94;7369548;19;20117;-75
2022/12/01 08:44:10;;;;;;;74.30;28.10;;;;;;;3.42;100.00;103141.63;7369261;19;20018;-75
2022/12/01 08:46:40;;;;;;;82.38;28.55;;;;;;;3.43;100.00;103146.94;7366524;19;20030;-75
2022/12/01 08:49:10;;;;;;;81.93;28.15;;;;;;;3.46;100.00;103144.59;7370124;19;20014;-75
2022/12/01 08:51:42;;;;;;;90.13;30.50;;;;;;;3.47;100.00;103146.41;7367549;19;20017;-75
2022/12/01 08:54:13;;;;;;;80.68;30.27;;;;;;;3.53;100.00;103138.19;7369789;19;20094;-76
2022/12/01 08:56:46;;;;;;;85.82;27.80;;;;;;;3.60;100.00;103143.97;7367203;19;20010;-76
2022/12/01 08:59:16;;;;;;;72.95;27.60;;;;;;;3.62;100.00;103144.09;7368495;19;20053;-76
2022/12/01 09:01:56;;;;;;;88.18;30.95;;;;;;;3.65;100.00;103138.25;7364416;19;20018;-76
2022/12/01 09:04:28;;;;;;;86.88;32.22;;;;;;;3.72;100.00;103131.03;7368310;19;20015;-76
2022/12/01 09:07:00;;;;;;;83.78;29.65;;;;;;;3.73;100.00;103137.13;7368972;19;20025;-76
2022/12/01 09:09:30;;;;;;;91.05;30.20;;;;;;;3.81;100.00;103134.34;7366287;19;20014;-76
2022/12/01 09:12:00;;;;;;;93.80;31.48;;;;;;;3.86;100.00;103139.91;7366885;19;20076;-76
2022/12/01 09:14:30;;;;;;;91.03;32.05;;;;;;;3.92;100.00;103130.88;7367631;19;20028;-76
2022/12/01 09:16:59;;;;;;;85.45;30.17;;;;;;;4.02;100.00;103131.59;7366741;19;20134;-76
2022/12/01 09:19:30;;;;;;;97.38;32.17;;;;;;;4.12;100.00;103140.19;7368513;19;20025;-76
2022/12/01 09:22:02;;;;;;;95.45;29.60;;;;;;;4.20;100.00;103138.16;7369534;19;20014;-76
2022/12/01 09:24:32;;;;;;;103.15;31.23;;;;;;;4.30;100.00;103139.75;7371024;19;20077;-76
2022/12/01 09:27:02;;;;;;;104.63;35.28;;;;;;;4.37;100.00;103139.41;7367856;19;20011;-76
2022/12/01 09:29:32;;;;;;;94.68;32.17;;;;;;;4.46;100.00;103137.50;7368461;19;20007;-76
2022/12/01 09:32:02;;;;;;;94.07;31.85;;;;;;;4.55;100.00;103138.19;7367579;19;20013;-76
2022/12/01 09:34:32;;;;;;;91.03;30.92;;;;;;;4.64;100.00;103138.88;7367555;19;20010;-76
2022/12/01 09:37:05;;;;;;;99.10;30.67;;;;;;;4.76;100.00;103144.06;7365530;19;20014;-76
2022/12/01 09:39:35;;;;;;;95.88;29.92;;;;;;;4.78;100.00;103143.38;7364998;19;20010;-76
2022/12/01 09:42:09;;;;;;;92.45;30.60;;;;;;;4.84;100.00;103137.72;7366908;19;20007;-76
2022/12/01 09:44:43;;;;;;;101.57;35.10;;;;;;;4.93;100.00;103138.41;7370157;19;20021;-76
2022/12/01 09:47:20;;;;;;;99.65;31.92;;;;;;;5.02;100.00;103132.97;7368570;19;20018;-76
2022/12/01 09:50:00;;;;;;;97.03;33.65;;;;;;;5.10;100.00;103142.22;7374164;19;20007;-76
2022/12/01 09:52:36;;;;;;;96.45;32.38;;;;;;;5.16;100.00;103134.84;7375321;19;20022;-76
2022/12/01 09:55:14;;;;;;;103.55;32.05;;;;;;;5.18;100.00;103133.28;7373593;19;20035;-76
2022/12/01 09:57:49;;;;;;;99.20;33.05;;;;;;;5.24;100.00;103125.88;7370129;19;20027;-76
2022/12/01 10:00:21;;;;;;;99.95;33.45;;;;;;;5.22;100.00;103124.84;7365519;19;20011;-76
2022/12/01 10:02:56;;;;;;;93.00;32.42;;;;;;;5.24;100.00;103125.88;7368903;19;20030;-76
2022/12/01 10:05:32;;;;;;;90.32;31.10;;;;;;;5.28;100.00;103117.47;7372527;19;20506;-77
2022/12/01 10:08:07;;;;;;;96.10;31.60;;;;;;;5.21;100.00;103110.94;7368930;19;20011;-77
2022/12/01 10:10:41;;;;;;;92.50;34.00;;;;;;;5.13;100.00;103113.81;7367956;19;20015;-77
2022/12/01 10:13:19;;;;;;;82.80;29.42;;;;;;;5.06;100.00;103109.88;7370608;19;20014;-77
2022/12/01 10:15:56;;;;;;;81.55;28.50;;;;;;;5.12;100.00;103114.63;7372419;19;20010;-78
2022/12/01 10:18:42;;;;;;;82.95;29.80;;;;;;;5.20;100.00;103118.66;7372494;19;20014;-77
2022/12/01 10:21:18;;;;;;;89.45;31.88;;;;;;;5.30;100.00;103125.41;7370988;19;20013;-76
2022/12/01 10:24:07;;;;;;;91.20;32.67;;;;;;;5.39;100.00;103116.53;7371898;19;20014;-75
2022/12/01 10:26:46;;;;;;;87.88;30.95;;;;;;;5.46;100.00;103108.38;7370878;19;20518;-74
2022/12/01 10:29:25;;;;;;;87.75;31.73;;;;;;;5.49;100.00;103112.88;7373448;19;20436;-75
2022/12/01 10:31:56;;;;;;;93.13;31.95;;;;;;;5.51;100.00;103117.41;7371219;19;20025;-75
2022/12/01 10:34:30;;;;;;;95.22;31.55;;;;;;;5.58;100.00;103108.31;7371224;19;20467;-75
2022/12/01 10:37:00;;;;;;;91.53;32.60;;;;;;;5.61;100.00;103110.25;7369410;19;20011;-75
2022/12/01 10:39:36;;;;;;;91.28;31.35;;;;;;;5.71;100.00;103110.06;7376291;19;20019;-75
2022/12/01 10:42:09;;;;;;;83.88;31.23;;;;;;;5.77;100.00;103102.69;7377096;19;20014;-75
2022/12/01 10:44:39;;;;;;;79.38;28.30;;;;;;;5.82;100.00;103103.91;7378861;19;20314;-75
2022/12/01 10:47:18;;;;;;;86.03;29.23;;;;;;;5.76;100.00;103109.59;7379423;19;20018;-75
2022/12/01 10:49:49;;;;;;;78.93;27.17;;;;;;;5.85;100.00;103098.91;7377290;19;20041;-76
2022/12/01 10:52:34;;;;;;;80.13;31.08;;;;;;;5.93;100.00;103107.28;7375879;19;20022;-75
2022/12/01 10:55:30;;;;;;;69.95;28.17;;;;;;;6.01;100.00;103093.97;7381884;19;20086;-76
2022/12/01 10:58:04;;;;;;;74.13;28.40;;;;;;;5.98;100.00;103093.78;7381527;19;20047;-76
2022/12/01 11:00:41;;;;;;;75.63;29.75;;;;;;;6.05;100.00;103103.81;7375163;19;20013;-76
2022/12/01 11:03:30;;;;;;;71.30;26.52;;;;;;;5.96;100.00;103095.38;7374675;19;20015;-76
2022/12/01 11:06:02;;;;;;;68.30;25.33;;;;;;;6.01;100.00;103093.06;7374454;19;20067;-76
2022/12/01 11:08:40;;;;;;;62.97;24.60;;;;;;;6.13;100.00;103097.41;7373475;19;20011;-76
2022/12/01 11:11:26;;;;;;;71.90;27.65;;;;;;;6.24;100.00;103083.38;7371761;19;20013;-76
2022/12/01 11:13:57;;;;;;;61.00;23.45;;;;;;;6.31;100.00;103086.38;7373775;19;20010;-76
2022/12/01 11:16:38;;;;;;;68.95;25.50;;;;;;;6.40;100.00;103087.88;7373944;19;20078;-76
2022/12/01 11:19:24;;;;;;;67.43;24.33;;;;;;;6.52;100.00;103079.97;7375805;19;20014;-77
2022/12/01 11:21:58;;;;;;;65.68;25.52;;;;;;;6.62;100.00;103084.97;7377622;19;20007;-77
2022/12/01 11:24:47;;;;;;;59.55;23.35;;;;;;;6.51;100.00;103080.78;7378025;19;20015;-78
2022/12/01 11:27:22;;;;;;;64.32;21.08;;;;;;;6.52;100.00;103073.06;7366161;19;20010;-77
2022/12/01 11:29:54;;;;;;;63.63;23.80;;;;;;;6.56;100.00;103074.16;7374293;19;20007;-77
2022/12/01 11:32:27;;;;;;;56.08;23.13;;;;;;;6.60;100.00;103070.03;7380579;19;20010;-76
2022/12/01 11:35:01;;;;;;;69.00;25.25;;;;;;;6.73;100.00;103063.09;7378456;19;20025;-77
2022/12/01 11:37:34;;;;;;;61.95;22.42;;;;;;;6.77;100.00;103059.88;7376443;19;20011;-76
2022/12/01 11:40:11;;;;;;;57.70;22.17;;;;;;;6.81;100.00;103061.00;7377697;19;20022;-77
2022/12/01 11:42:48;;;;;;;54.42;21.73;;;;;;;6.82;100.00;103057.56;7377351;19;20078;-77
2022/12/01 11:45:35;;;;;;;58.33;21.65;;;;;;;6.87;100.00;103046.63;7379118;19;20102;-77